sensor_id;sensor_type;location;lat;lon;timestamp;pressure;altitude;pressure_sealevel;temperature;humidity
64610;BME280;51019;46.090;6.350;2023-12-04T00:00:16;96723.28;;;-3.64;100.00
64610;BME280;51019;46.090;6.350;2023-12-04T00:02:43;96716.22;;;-3.57;100.00
64610;BME280;51019;46.090;6.350;2023-12-04T00:05:13;96709.91;;;-3.24;100.00
64610;BME280;51019;46.090;6.350;2023-12-04T00:07:40;96696.53;;;-3.09;100.00
64610;BME280;51019;46.090;6.350;2023-12-04T00:10:09;96697.56;;;-3.38;100.00
64610;BME280;51019;46.090;6.350;2023-12-04T00:12:37;96702.78;;;-3.39;100.00
64610;BME280;51019;46.090;6.350;2023-12-04T00:15:05;96704.44;;;-3.15;100.00
64610;BME280;51019;46.090;6.350;2023-12-04T00:17:32;96696.91;;;-3.43;100.00
64610;BME280;51019;46.090;6.350;2023-12-04T00:20:00;96690.41;;;-3.28;100.00
64610;BME280;51019;46.090;6.350;2023-12-04T00:22:27;96689.69;;;-3.32;100.00
64610;BME280;51019;46.090;6.350;2023-12-04T00:24:56;96663.16;;;-3.31;100.00
64610;BME280;51019;46.090;6.350;2023-12-04T00:27:25;96665.47;;;-3.48;100.00
64610;BME280;51019;46.090;6.350;2023-12-04T00:29:53;96654.72;;;-3.34;100.00
64610;BME280;51019;46.090;6.350;2023-12-04T00:32:20;96651.50;;;-3.16;100.00
64610;BME280;51019;46.090;6.350;2023-12-04T00:34:47;96660.72;;;-3.58;100.00
64610;BME280;51019;46.090;6.350;2023-12-04T00:37:14;96646.25;;;-3.36;100.00
64610;BME280;51019;46.090;6.350;2023-12-04T00:39:41;96659.91;;;-3.36;100.00
64610;BME280;51019;46.090;6.350;2023-12-04T00:42:09;96654.72;;;-3.34;100.00
64610;BME280;51019;46.090;6.350;2023-12-04T00:44:39;96654.84;;;-3.37;100.00
64610;BME280;51019;46.090;6.350;2023-12-04T00:47:06;96661.88;;;-3.42;100.00
64610;BME280;51019;46.090;6.350;2023-12-04T00:49:33;96648.81;;;-3.36;100.00
64610;BME280;51019;46.090;6.350;2023-12-04T00:52:02;96645.31;;;-3.34;100.00
64610;BME280;51019;46.090;6.350;2023-12-04T00:54:29;96642.25;;;-3.20;100.00
64610;BME280;51019;46.090;6.350;2023-12-04T00:56:56;96636.59;;;-3.28;100.00
64610;BME280;51019;46.090;6.350;2023-12-04T00:59:24;96641.47;;;-3.22;100.00
64610;BME280;51019;46.090;6.350;2023-12-04T01:01:53;96636.53;;;-3.05;100.00
64610;BME280;51019;46.090;6.350;2023-12-04T01:04:20;96631.09;;;-2.96;100.00
64610;BME280;51019;46.090;6.350;2023-12-04T01:06:50;96613.47;;;-3.05;100.00
64610;BME280;51019;46.090;6.350;2023-12-04T01:09:18;96632.25;;;-3.04;100.00
64610;BME280;51019;46.090;6.350;2023-12-04T01:11:49;96639.28;;;-3.09;100.00
64610;BME280;51019;46.090;6.350;2023-12-04T01:14:16;96644.13;;;-3.25;100.00
64610;BME280;51019;46.090;6.350;2023-12-04T01:16:43;96659.56;;;-3.03;100.00
64610;BME280;51019;46.090;6.350;2023-12-04T01:19:13;96652.13;;;-2.87;100.00
64610;BME280;51019;46.090;6.350;2023-12-04T01:21:40;96663.25;;;-2.87;100.00
64610;BME280;51019;46.090;6.350;2023-12-04T01:24:09;96659.38;;;-2.75;100.00
64610;BME280;51019;46.090;6.350;2023-12-04T01:26:37;96658.59;;;-2.77;100.00
64610;BME280;51019;46.090;6.350;2023-12-04T01:29:05;96652.13;;;-2.87;100.00
64610;BME280;51019;46.090;6.350;2023-12-04T01:31:32;96650.47;;;-2.67;100.00
64610;BME280;51019;46.090;6.350;2023-12-04T01:34:00;96649.56;;;-2.87;100.00
64610;BME280;51019;46.090;6.350;2023-12-04T01:36:31;96642.22;;;-3.18;100.00
64610;BME280;51019;46.090;6.350;2023-12-04T01:38:58;96651.59;;;-2.96;100.00
64610;BME280;51019;46.090;6.350;2023-12-04T01:41:25;96642.25;;;-2.75;100.00
64610;BME280;51019;46.090;6.350;2023-12-04T01:43:53;96625.91;;;-2.50;100.00
64610;BME280;51019;46.090;6.350;2023-12-04T01:46:21;96633.00;;;-2.37;100.00
64610;BME280;51019;46.090;6.350;2023-12-04T01:48:50;96636.50;;;-2.38;100.00
64610;BME280;51019;46.090;6.350;2023-12-04T01:51:17;96607.53;;;-2.62;100.00
64610;BME280;51019;46.090;6.350;2023-12-04T01:53:48;96627.38;;;-2.45;100.00
64610;BME280;51019;46.090;6.350;2023-12-04T01:56:17;96639.41;;;-2.47;100.00
64610;BME280;51019;46.090;6.350;2023-12-04T01:58:45;96625.75;;;-2.47;100.00
64610;BME280;51019;46.090;6.350;2023-12-04T02:01:15;96638.44;;;-2.23;100.00
64610;BME280;51019;46.090;6.350;2023-12-04T02:03:42;96637.16;;;-2.12;100.00
64610;BME280;51019;46.090;6.350;2023-12-04T02:06:12;96628.03;;;-2.20;100.00
64610;BME280;51019;46.090;6.350;2023-12-04T02:08:40;96613.81;;;-2.27;100.00
64610;BME280;51019;46.090;6.350;2023-12-04T02:11:09;96596.63;;;-2.46;100.00
64610;BME280;51019;46.090;6.350;2023-12-04T02:13:36;96600.25;;;-2.10;100.00
64610;BME280;51019;46.090;6.350;2023-12-04T02:16:03;96599.28;;;-2.07;100.00
64610;BME280;51019;46.090;6.350;2023-12-04T02:18:34;96573.28;;;-2.40;100.00
64610;BME280;51019;46.090;6.350;2023-12-04T02:21:05;96584.78;;;-2.08;100.00
64610;BME280;51019;46.090;6.350;2023-12-04T02:23:32;96582.22;;;-2.29;100.00
64610;BME280;51019;46.090;6.350;2023-12-04T02:26:05;96584.41;;;-2.40;100.00
64610;BME280;51019;46.090;6.350;2023-12-04T02:28:36;96594.78;;;-2.43;100.00
64610;BME280;51019;46.090;6.350;2023-12-04T02:31:05;96576.94;;;-2.46;100.00
64610;BME280;51019;46.090;6.350;2023-12-04T02:33:34;96579.81;;;-2.33;100.00
64610;BME280;51019;46.090;6.350;2023-12-04T02:36:04;96574.31;;;-2.24;100.00
64610;BME280;51019;46.090;6.350;2023-12-04T02:38:32;96576.41;;;-2.13;100.00
64610;BME280;51019;46.090;6.350;2023-12-04T02:41:01;96575.78;;;-2.39;100.00
64610;BME280;51019;46.090;6.350;2023-12-04T02:43:28;96569.38;;;-2.49;100.00
64610;BME280;51019;46.090;6.350;2023-12-04T02:45:55;96564.59;;;-2.58;100.00
64610;BME280;51019;46.090;6.350;2023-12-04T02:48:21;96566.94;;;-2.32;100.00
64610;BME280;51019;46.090;6.350;2023-12-04T02:50:48;96554.44;;;-2.39;100.00
64610;BME280;51019;46.090;6.350;2023-12-04T02:53:15;96554.59;;;-2.24;100.00
64610;BME280;51019;46.090;6.350;2023-12-04T02:55:42;96544.09;;;-2.17;100.00
64610;BME280;51019;46.090;6.350;2023-12-04T02:58:10;96537.53;;;-2.04;100.00
64610;BME280;51019;46.090;6.350;2023-12-04T03:00:37;96535.41;;;-1.95;100.00
64610;BME280;51019;46.090;6.350;2023-12-04T03:03:04;96522.31;;;-2.09;100.00
64610;BME280;51019;46.090;6.350;2023-12-04T03:05:31;96523.88;;;-1.86;100.00
64610;BME280;51019;46.090;6.350;2023-12-04T03:07:58;96517.47;;;-1.96;100.00
64610;BME280;51019;46.090;6.350;2023-12-04T03:10:25;96518.94;;;-1.91;100.00
64610;BME280;51019;46.090;6.350;2023-12-04T03:12:52;96511.88;;;-1.86;100.00
64610;BME280;51019;46.090;6.350;2023-12-04T03:15:21;96504.72;;;-1.79;100.00
64610;BME280;51019;46.090;6.350;2023-12-04T03:17:48;96497.78;;;-1.77;100.00
64610;BME280;51019;46.090;6.350;2023-12-04T03:20:16;96493.41;;;-1.75;100.00
64610;BME280;51019;46.090;6.350;2023-12-04T03:22:43;96485.16;;;-1.81;100.00
64610;BME280;51019;46.090;6.350;2023-12-04T03:25:10;96476.09;;;-1.90;100.00
64610;BME280;51019;46.090;6.350;2023-12-04T03:27:37;96479.38;;;-1.68;100.00
64610;BME280;51019;46.090;6.350;2023-12-04T03:30:05;96482.09;;;-1.71;100.00
64610;BME280;51019;46.090;6.350;2023-12-04T03:32:34;96480.84;;;-1.62;100.00
64610;BME280;51019;46.090;6.350;2023-12-04T03:35:01;96471.94;;;-1.74;100.00
64610;BME280;51019;46.090;6.350;2023-12-04T03:37:28;96482.50;;;-1.61;100.00
64610;BME280;51019;46.090;6.350;2023-12-04T03:39:55;96465.56;;;-1.84;100.00
64610;BME280;51019;46.090;6.350;2023-12-04T03:42:22;96488.63;;;-1.83;100.00
64610;BME280;51019;46.090;6.350;2023-12-04T03:44:49;96487.44;;;-1.75;100.00
64610;BME280;51019;46.090;6.350;2023-12-04T03:47:16;96492.75;;;-1.80;100.00
64610;BME280;51019;46.090;6.350;2023-12-04T03:49:45;96494.66;;;-1.65;100.00
64610;BME280;51019;46.090;6.350;2023-12-04T03:52:12;96472.09;;;-1.96;100.00
64610;BME280;51019;46.090;6.350;2023-12-04T03:54:39;96497.16;;;-1.63;100.00
64610;BME280;51019;46.090;6.350;2023-12-04T03:57:08;96483.75;;;-1.51;100.00
64610;BME280;51019;46.090;6.350;2023-12-04T03:59:34;96490.75;;;-1.55;100.00
64610;BME280;51019;46.090;6.350;2023-12-04T04:02:01;96475.81;;;-1.47;100.00
64610;BME280;51019;46.090;6.350;2023-12-04T04:04:28;96477.50;;;-1.64;100.00
64610;BME280;51019;46.090;6.350;2023-12-04T04:06:57;96479.03;;;-1.60;100.00
64610;BME280;51019;46.090;6.350;2023-12-04T04:09:24;96481.25;;;-1.71;100.00
64610;BME280;51019;46.090;6.350;2023-12-04T04:11:51;96477.50;;;-1.64;100.00
64610;BME280;51019;46.090;6.350;2023-12-04T04:14:18;96474.72;;;-1.60;100.00
64610;BME280;51019;46.090;6.350;2023-12-04T04:16:45;96485.13;;;-2.00;100.00
64610;BME280;51019;46.090;6.350;2023-12-04T04:19:12;96485.66;;;-2.12;100.00
64610;BME280;51019;46.090;6.350;2023-12-04T04:21:39;96482.59;;;-2.02;100.00
64610;BME280;51019;46.090;6.350;2023-12-04T04:24:08;96478.66;;;-2.09;100.00
64610;BME280;51019;46.090;6.350;2023-12-04T04:26:35;96482.34;;;-2.14;100.00
64610;BME280;51019;46.090;6.350;2023-12-04T04:29:02;96464.22;;;-2.11;100.00
64610;BME280;51019;46.090;6.350;2023-12-04T04:31:29;96466.16;;;-2.16;100.00
64610;BME280;51019;46.090;6.350;2023-12-04T04:33:56;96451.47;;;-1.94;100.00
64610;BME280;51019;46.090;6.350;2023-12-04T04:36:22;96451.41;;;-1.74;100.00
64610;BME280;51019;46.090;6.350;2023-12-04T04:38:49;96438.69;;;-1.58;100.00
64610;BME280;51019;46.090;6.350;2023-12-04T04:41:18;96457.72;;;-1.81;100.00
64610;BME280;51019;46.090;6.350;2023-12-04T04:43:45;96432.28;;;-1.68;100.00
64610;BME280;51019;46.090;6.350;2023-12-04T04:46:12;96423.63;;;-2.03;100.00
64610;BME280;51019;46.090;6.350;2023-12-04T04:48:41;96431.09;;;-1.61;100.00
64610;BME280;51019;46.090;6.350;2023-12-04T04:51:08;96442.94;;;-1.40;100.00
64610;BME280;51019;46.090;6.350;2023-12-04T04:53:35;96440.66;;;-1.46;100.00
64610;BME280;51019;46.090;6.350;2023-12-04T04:56:03;96427.28;;;-1.35;100.00
64610;BME280;51019;46.090;6.350;2023-12-04T04:58:32;96424.41;;;-1.47;100.00
64610;BME280;51019;46.090;6.350;2023-12-04T05:00:58;96433.50;;;-1.39;100.00
64610;BME280;51019;46.090;6.350;2023-12-04T05:03:26;96417.81;;;-1.16;100.00
64610;BME280;51019;46.090;6.350;2023-12-04T05:05:53;96421.97;;;-1.14;100.00
64610;BME280;51019;46.090;6.350;2023-12-04T05:08:20;96431.72;;;-1.20;100.00
64610;BME280;51019;46.090;6.350;2023-12-04T05:10:46;96422.88;;;-1.15;100.00
64610;BME280;51019;46.090;6.350;2023-12-04T05:13:13;96420.91;;;-1.27;100.00
64610;BME280;51019;46.090;6.350;2023-12-04T05:15:42;96430.03;;;-1.21;100.00
64610;BME280;51019;46.090;6.350;2023-12-04T05:18:09;96422.94;;;-1.16;100.00
64610;BME280;51019;46.090;6.350;2023-12-04T05:20:36;96425.22;;;-1.10;100.00
64610;BME280;51019;46.090;6.350;2023-12-04T05:23:03;96430.75;;;-1.00;100.00
64610;BME280;51019;46.090;6.350;2023-12-04T05:25:30;96438.84;;;-1.25;100.00
64610;BME280;51019;46.090;6.350;2023-12-04T05:27:57;96411.13;;;-1.20;100.00
64610;BME280;51019;46.090;6.350;2023-12-04T05:30:24;96380.41;;;-1.40;100.00
64610;BME280;51019;46.090;6.350;2023-12-04T05:32:53;96396.94;;;-1.27;100.00
64610;BME280;51019;46.090;6.350;2023-12-04T05:35:21;96386.44;;;-1.59;100.00
64610;BME280;51019;46.090;6.350;2023-12-04T05:37:48;96373.09;;;-1.48;100.00
64610;BME280;51019;46.090;6.350;2023-12-04T05:40:15;96367.34;;;-1.19;100.00
64610;BME280;51019;46.090;6.350;2023-12-04T05:42:42;96348.13;;;-0.94;100.00
64610;BME280;51019;46.090;6.350;2023-12-04T05:45:09;96342.97;;;-1.63;100.00
64610;BME280;51019;46.090;6.350;2023-12-04T05:47:36;96344.25;;;-1.55;100.00
64610;BME280;51019;46.090;6.350;2023-12-04T05:50:07;96347.00;;;-1.40;100.00
64610;BME280;51019;46.090;6.350;2023-12-04T05:52:34;96363.13;;;-1.37;100.00
64610;BME280;51019;46.090;6.350;2023-12-04T05:55:01;96347.28;;;-1.12;100.00
64610;BME280;51019;46.090;6.350;2023-12-04T05:57:29;96356.91;;;-1.50;100.00
64610;BME280;51019;46.090;6.350;2023-12-04T05:59:56;96354.31;;;-1.50;100.00
64610;BME280;51019;46.090;6.350;2023-12-04T06:02:23;96356.25;;;-1.72;100.00
64610;BME280;51019;46.090;6.350;2023-12-04T06:04:50;96363.53;;;-1.46;100.00
64610;BME280;51019;46.090;6.350;2023-12-04T06:07:20;96372.72;;;-1.40;100.00
64610;BME280;51019;46.090;6.350;2023-12-04T06:09:48;96371.88;;;-1.41;100.00
64610;BME280;51019;46.090;6.350;2023-12-04T06:12:14;96337.22;;;-1.34;100.00
64610;BME280;51019;46.090;6.350;2023-12-04T06:14:41;96354.88;;;-1.26;100.00
64610;BME280;51019;46.090;6.350;2023-12-04T06:17:09;96343.88;;;-0.95;100.00
64610;BME280;51019;46.090;6.350;2023-12-04T06:19:36;96368.09;;;-0.99;100.00
64610;BME280;51019;46.090;6.350;2023-12-04T06:22:03;96344.34;;;-1.04;100.00
64610;BME280;51019;46.090;6.350;2023-12-04T06:24:33;96351.53;;;-1.11;100.00
64610;BME280;51019;46.090;6.350;2023-12-04T06:27:01;96324.44;;;-1.01;100.00
64610;BME280;51019;46.090;6.350;2023-12-04T06:29:30;96336.28;;;-1.14;100.00
64610;BME280;51019;46.090;6.350;2023-12-04T06:31:58;96324.63;;;-1.04;100.00
64610;BME280;51019;46.090;6.350;2023-12-04T06:34:26;96336.88;;;-1.26;100.00
64610;BME280;51019;46.090;6.350;2023-12-04T06:36:54;96311.16;;;-1.43;100.00
64610;BME280;51019;46.090;6.350;2023-12-04T06:39:22;96274.66;;;-1.50;100.00
64610;BME280;51019;46.090;6.350;2023-12-04T06:41:53;96306.03;;;-1.26;100.00
64610;BME280;51019;46.090;6.350;2023-12-04T06:44:21;96331.44;;;-1.37;100.00
64610;BME280;51019;46.090;6.350;2023-12-04T06:46:49;96342.78;;;-1.24;100.00
64610;BME280;51019;46.090;6.350;2023-12-04T06:49:18;96345.03;;;-1.18;100.00
64610;BME280;51019;46.090;6.350;2023-12-04T06:51:47;96334.59;;;-1.15;100.00
64610;BME280;51019;46.090;6.350;2023-12-04T06:54:14;96297.00;;;-1.52;100.00
64610;BME280;51019;46.090;6.350;2023-12-04T06:56:43;96309.47;;;-1.44;100.00
64610;BME280;51019;46.090;6.350;2023-12-04T06:59:12;96320.16;;;-1.69;100.00
64610;BME280;51019;46.090;6.350;2023-12-04T07:01:39;96339.53;;;-1.81;100.00
64610;BME280;51019;46.090;6.350;2023-12-04T07:04:05;96326.56;;;-1.43;100.00
64610;BME280;51019;46.090;6.350;2023-12-04T07:06:35;96347.44;;;-1.32;100.00
64610;BME280;51019;46.090;6.350;2023-12-04T07:09:02;96348.28;;;-1.32;100.00
64610;BME280;51019;46.090;6.350;2023-12-04T07:11:29;96333.94;;;-1.36;100.00
64610;BME280;51019;46.090;6.350;2023-12-04T07:13:56;96310.19;;;-1.58;100.00
64610;BME280;51019;46.090;6.350;2023-12-04T07:16:25;96311.97;;;-1.43;100.00
64610;BME280;51019;46.090;6.350;2023-12-04T07:18:52;96292.88;;;-1.37;100.00
64610;BME280;51019;46.090;6.350;2023-12-04T07:21:19;96288.31;;;-1.32;100.00
64610;BME280;51019;46.090;6.350;2023-12-04T07:23:46;96279.69;;;-1.66;100.00
64610;BME280;51019;46.090;6.350;2023-12-04T07:26:14;96239.84;;;-1.92;100.00
64610;BME280;51019;46.090;6.350;2023-12-04T07:28:41;96275.09;;;-1.59;100.00
64610;BME280;51019;46.090;6.350;2023-12-04T07:31:08;96249.00;;;-1.52;100.00
64610;BME280;51019;46.090;6.350;2023-12-04T07:33:37;96274.56;;;-1.14;100.00
64610;BME280;51019;46.090;6.350;2023-12-04T07:36:04;96271.72;;;-1.10;100.00
64610;BME280;51019;46.090;6.350;2023-12-04T07:38:31;96285.28;;;-1.23;100.00
64610;BME280;51019;46.090;6.350;2023-12-04T07:40:58;96277.28;;;-1.52;100.00
64610;BME280;51019;46.090;6.350;2023-12-04T07:43:25;96286.50;;;-1.13;100.00
64610;BME280;51019;46.090;6.350;2023-12-04T07:45:53;96284.09;;;-1.00;100.00
64610;BME280;51019;46.090;6.350;2023-12-04T07:48:21;96293.00;;;-0.73;100.00
64610;BME280;51019;46.090;6.350;2023-12-04T07:50:50;96284.66;;;-1.11;100.00
64610;BME280;51019;46.090;6.350;2023-12-04T07:53:17;96283.25;;;-1.17;100.00
64610;BME280;51019;46.090;6.350;2023-12-04T07:55:45;96281.81;;;-1.39;100.00
64610;BME280;51019;46.090;6.350;2023-12-04T07:58:14;96291.66;;;-1.30;100.00
64610;BME280;51019;46.090;6.350;2023-12-04T08:00:41;96286.72;;;-1.35;100.00
64610;BME280;51019;46.090;6.350;2023-12-04T08:03:10;96289.81;;;-1.11;100.00
64610;BME280;51019;46.090;6.350;2023-12-04T08:05:41;96294.09;;;-0.61;100.00
64610;BME280;51019;46.090;6.350;2023-12-04T08:08:10;96282.16;;;-0.47;100.00
64610;BME280;51019;46.090;6.350;2023-12-04T08:10:37;96264.03;;;-0.45;100.00
64610;BME280;51019;46.090;6.350;2023-12-04T08:13:04;96226.09;;;-0.73;100.00
64610;BME280;51019;46.090;6.350;2023-12-04T08:15:31;96265.13;;;-0.33;100.00
64610;BME280;51019;46.090;6.350;2023-12-04T08:17:58;96282.16;;;-0.47;100.00
64610;BME280;51019;46.090;6.350;2023-12-04T08:20:26;96297.03;;;-0.36;100.00
64610;BME280;51019;46.090;6.350;2023-12-04T08:22:53;96266.94;;;-0.51;100.00
64610;BME280;51019;46.090;6.350;2023-12-04T08:25:22;96273.69;;;-0.17;100.00
64610;BME280;51019;46.090;6.350;2023-12-04T08:27:49;96272.94;;;-0.51;100.00
64610;BME280;51019;46.090;6.350;2023-12-04T08:30:16;96275.53;;;-0.35;100.00
64610;BME280;51019;46.090;6.350;2023-12-04T08:32:45;96270.78;;;-0.27;100.00
64610;BME280;51019;46.090;6.350;2023-12-04T08:35:13;96253.06;;;-0.64;100.00
64610;BME280;51019;46.090;6.350;2023-12-04T08:37:40;96271.09;;;-0.33;100.00
64610;BME280;51019;46.090;6.350;2023-12-04T08:40:08;96254.47;;;0.04;100.00
64610;BME280;51019;46.090;6.350;2023-12-04T08:42:37;96271.75;;;-0.45;100.00
64610;BME280;51019;46.090;6.350;2023-12-04T08:45:06;96251.09;;;-0.59;100.00
64610;BME280;51019;46.090;6.350;2023-12-04T08:47:34;96253.41;;;-0.08;100.00
64610;BME280;51019;46.090;6.350;2023-12-04T08:50:02;96238.00;;;0.22;100.00
64610;BME280;51019;46.090;6.350;2023-12-04T08:52:29;96256.97;;;0.06;100.00
64610;BME280;51019;46.090;6.350;2023-12-04T08:54:56;96239.22;;;-0.46;100.00
64610;BME280;51019;46.090;6.350;2023-12-04T08:57:23;96252.41;;;-0.21;100.00
64610;BME280;51019;46.090;6.350;2023-12-04T08:59:52;96240.53;;;-0.08;100.00
64610;BME280;51019;46.090;6.350;2023-12-04T09:02:19;96235.75;;;0.16;100.00
64610;BME280;51019;46.090;6.350;2023-12-04T09:04:47;96245.91;;;0.04;100.00
64610;BME280;51019;46.090;6.350;2023-12-04T09:07:15;96244.09;;;0.35;100.00
64610;BME280;51019;46.090;6.350;2023-12-04T09:09:42;96238.63;;;0.26;100.00
64610;BME280;51019;46.090;6.350;2023-12-04T09:12:10;96237.25;;;0.05;100.00
64610;BME280;51019;46.090;6.350;2023-12-04T09:14:37;96240.34;;;0.11;100.00
64610;BME280;51019;46.090;6.350;2023-12-04T09:17:06;96233.91;;;0.18;100.00
64610;BME280;51019;46.090;6.350;2023-12-04T09:19:33;96248.84;;;0.27;100.00
64610;BME280;51019;46.090;6.350;2023-12-04T09:22:02;96237.03;;;0.09;100.00
64610;BME280;51019;46.090;6.350;2023-12-04T09:24:29;96259.38;;;0.39;100.00
64610;BME280;51019;46.090;6.350;2023-12-04T09:26:57;96262.41;;;0.31;100.00
64610;BME280;51019;46.090;6.350;2023-12-04T09:29:24;96284.28;;;0.24;100.00
64610;BME280;51019;46.090;6.350;2023-12-04T09:31:51;96266.69;;;0.00;100.00
64610;BME280;51019;46.090;6.350;2023-12-04T09:34:20;96264.91;;;0.32;100.00
64610;BME280;51019;46.090;6.350;2023-12-04T09:36:48;96285.72;;;0.14;100.00
64610;BME280;51019;46.090;6.350;2023-12-04T09:39:15;96287.38;;;0.15;100.00
64610;BME280;51019;46.090;6.350;2023-12-04T09:41:43;96281.09;;;0.34;100.00
64610;BME280;51019;46.090;6.350;2023-12-04T09:44:11;96296.84;;;0.14;100.00
64610;BME280;51019;46.090;6.350;2023-12-04T09:46:38;96288.81;;;0.05;100.00
64610;BME280;51019;46.090;6.350;2023-12-04T09:49:05;96281.69;;;0.24;100.00
64610;BME280;51019;46.090;6.350;2023-12-04T09:51:36;96284.22;;;0.10;100.00
64610;BME280;51019;46.090;6.350;2023-12-04T09:54:04;96279.41;;;0.19;100.00
64610;BME280;51019;46.090;6.350;2023-12-04T09:56:33;96277.94;;;0.45;100.00
64610;BME280;51019;46.090;6.350;2023-12-04T09:59:00;96266.44;;;0.21;100.00
64610;BME280;51019;46.090;6.350;2023-12-04T10:01:29;96263.78;;;0.36;100.00
64610;BME280;51019;46.090;6.350;2023-12-04T10:03:57;96258.53;;;0.54;100.00
64610;BME280;51019;46.090;6.350;2023-12-04T10:06:27;96262.31;;;0.62;100.00
64610;BME280;51019;46.090;6.350;2023-12-04T10:08:57;96257.19;;;0.77;100.00
64610;BME280;51019;46.090;6.350;2023-12-04T10:11:24;96269.56;;;0.26;100.00
64610;BME280;51019;46.090;6.350;2023-12-04T10:13:52;96267.03;;;0.40;100.00
64610;BME280;51019;46.090;6.350;2023-12-04T10:16:33;96276.59;;;0.38;100.00
64610;BME280;51019;46.090;6.350;2023-12-04T10:19:17;96269.44;;;0.43;100.00
64610;BME280;51019;46.090;6.350;2023-12-04T10:21:46;96279.41;;;0.49;100.00
64610;BME280;51019;46.090;6.350;2023-12-04T10:24:27;96268.47;;;0.60;100.00
64610;BME280;51019;46.090;6.350;2023-12-04T10:26:54;96260.81;;;0.58;100.00
64610;BME280;51019;46.090;6.350;2023-12-04T10:29:22;96259.63;;;0.34;100.00
64610;BME280;51019;46.090;6.350;2023-12-04T10:31:50;96256.44;;;0.75;100.00
64610;BME280;51019;46.090;6.350;2023-12-04T10:34:18;96254.00;;;0.57;100.00
64610;BME280;51019;46.090;6.350;2023-12-04T10:36:47;96236.03;;;1.00;100.00
64610;BME280;51019;46.090;6.350;2023-12-04T10:39:15;96245.91;;;0.63;100.00
64610;BME280;51019;46.090;6.350;2023-12-04T10:41:43;96243.53;;;0.75;100.00
64610;BME280;51019;46.090;6.350;2023-12-04T10:44:15;96230.56;;;1.19;100.00
64610;BME280;51019;46.090;6.350;2023-12-04T10:46:43;96235.81;;;1.31;100.00
64610;BME280;51019;46.090;6.350;2023-12-04T10:49:13;96238.50;;;1.16;100.00
64610;BME280;51019;46.090;6.350;2023-12-04T10:51:41;96226.59;;;1.27;100.00
64610;BME280;51019;46.090;6.350;2023-12-04T10:54:10;96214.97;;;0.92;100.00
64610;BME280;51019;46.090;6.350;2023-12-04T10:56:41;96232.13;;;0.93;100.00
64610;BME280;51019;46.090;6.350;2023-12-04T10:59:11;96230.31;;;1.09;100.00
64610;BME280;51019;46.090;6.350;2023-12-04T11:01:44;96204.31;;;1.12;100.00
64610;BME280;51019;46.090;6.350;2023-12-04T11:04:16;96199.28;;;1.37;100.00
64610;BME280;51019;46.090;6.350;2023-12-04T11:06:45;96212.94;;;1.25;100.00
64610;BME280;51019;46.090;6.350;2023-12-04T11:09:16;96205.38;;;1.36;100.00
64610;BME280;51019;46.090;6.350;2023-12-04T11:11:50;96213.22;;;0.92;100.00
64610;BME280;51019;46.090;6.350;2023-12-04T11:14:21;96194.19;;;1.50;100.00
64610;BME280;51019;46.090;6.350;2023-12-04T11:16:51;96198.19;;;1.41;100.00
64610;BME280;51019;46.090;6.350;2023-12-04T11:19:27;96187.53;;;1.19;100.00
64610;BME280;51019;46.090;6.350;2023-12-04T11:21:58;96190.28;;;1.16;100.00
64610;BME280;51019;46.090;6.350;2023-12-04T11:24:25;96184.25;;;1.44;100.00
64610;BME280;51019;46.090;6.350;2023-12-04T11:26:54;96148.16;;;1.16;100.00
64610;BME280;51019;46.090;6.350;2023-12-04T11:29:22;96180.94;;;1.42;100.00
64610;BME280;51019;46.090;6.350;2023-12-04T11:31:50;96188.53;;;1.17;100.00
64610;BME280;51019;46.090;6.350;2023-12-04T11:34:17;96175.84;;;0.99;100.00
64610;BME280;51019;46.090;6.350;2023-12-04T11:36:44;96181.06;;;1.26;100.00
64610;BME280;51019;46.090;6.350;2023-12-04T11:39:11;96176.19;;;1.07;100.00
64610;BME280;51019;46.090;6.350;2023-12-04T11:41:40;96179.03;;;1.17;100.00
64610;BME280;51019;46.090;6.350;2023-12-04T11:44:13;96165.94;;;1.20;100.00
64610;BME280;51019;46.090;6.350;2023-12-04T11:46:55;96172.25;;;0.88;100.00
64610;BME280;51019;46.090;6.350;2023-12-04T11:49:29;96152.16;;;0.79;100.00
64610;BME280;51019;46.090;6.350;2023-12-04T11:51:57;96166.34;;;0.86;100.00
64610;BME280;51019;46.090;6.350;2023-12-04T11:54:26;96152.78;;;0.82;100.00
64610;BME280;51019;46.090;6.350;2023-12-04T11:57:04;96157.47;;;1.04;100.00
64610;BME280;51019;46.090;6.350;2023-12-04T11:59:47;96151.88;;;1.12;100.00
64610;BME280;51019;46.090;6.350;2023-12-04T12:02:15;96130.22;;;1.00;100.00
64610;BME280;51019;46.090;6.350;2023-12-04T12:04:42;96140.13;;;1.34;100.00
64610;BME280;51019;46.090;6.350;2023-12-04T12:07:11;96135.13;;;0.90;100.00
64610;BME280;51019;46.090;6.350;2023-12-04T12:09:38;96134.19;;;0.77;100.00
64610;BME280;51019;46.090;6.350;2023-12-04T12:12:06;96135.13;;;0.76;100.00
64610;BME280;51019;46.090;6.350;2023-12-04T12:14:34;96122.75;;;0.81;100.00
64610;BME280;51019;46.090;6.350;2023-12-04T12:17:03;96114.19;;;0.95;100.00
64610;BME280;51019;46.090;6.350;2023-12-04T12:19:30;96119.44;;;0.93;100.00
64610;BME280;51019;46.090;6.350;2023-12-04T12:21:57;96100.91;;;0.87;100.00
64610;BME280;51019;46.090;6.350;2023-12-04T12:24:24;96109.00;;;0.95;100.00
64610;BME280;51019;46.090;6.350;2023-12-04T12:26:51;96105.34;;;0.85;100.00
64610;BME280;51019;46.090;6.350;2023-12-04T12:29:18;96110.25;;;0.89;100.00
64610;BME280;51019;46.090;6.350;2023-12-04T12:31:45;96109.09;;;1.07;100.00
64610;BME280;51019;46.090;6.350;2023-12-04T12:34:14;96093.00;;;0.61;100.00
64610;BME280;51019;46.090;6.350;2023-12-04T12:36:41;96103.03;;;0.94;100.00
64610;BME280;51019;46.090;6.350;2023-12-04T12:39:08;96097.53;;;0.72;100.00
64610;BME280;51019;46.090;6.350;2023-12-04T12:41:37;96092.06;;;0.91;100.00
64610;BME280;51019;46.090;6.350;2023-12-04T12:44:04;96094.53;;;0.92;100.00
64610;BME280;51019;46.090;6.350;2023-12-04T12:46:31;96090.47;;;1.02;100.00
64610;BME280;51019;46.090;6.350;2023-12-04T12:48:58;96061.41;;;0.72;100.00
64610;BME280;51019;46.090;6.350;2023-12-04T12:51:28;96085.53;;;0.99;100.00
64610;BME280;51019;46.090;6.350;2023-12-04T12:53:56;96083.84;;;0.98;100.00
64610;BME280;51019;46.090;6.350;2023-12-04T12:56:24;96068.28;;;1.00;100.00